sensor_id;sensor_type;location;lat;lon;timestamp;pressure;altitude;pressure_sealevel;temperature;humidity
61757;BME280;57225;61.460;24.060;2023-07-31T00:02:28;99176.22;;;17.06;100.00
61757;BME280;57225;61.460;24.060;2023-07-31T00:05:13;99175.13;;;17.03;100.00
61757;BME280;57225;61.460;24.060;2023-07-31T00:07:57;99182.66;;;17.06;100.00
61757;BME280;57225;61.460;24.060;2023-07-31T00:10:41;99086.16;;;16.42;100.00
61757;BME280;57225;61.460;24.060;2023-07-31T00:13:26;99173.56;;;17.02;100.00
61757;BME280;57225;61.460;24.060;2023-07-31T00:16:10;99183.91;;;17.05;100.00
61757;BME280;57225;61.460;24.060;2023-07-31T00:18:55;99189.22;;;17.03;100.00
61757;BME280;57225;61.460;24.060;2023-07-31T00:21:39;99188.41;;;17.03;100.00
61757;BME280;57225;61.460;24.060;2023-07-31T00:24:24;99186.41;;;16.94;100.00
61757;BME280;57225;61.460;24.060;2023-07-31T00:27:08;99190.75;;;16.95;100.00
61757;BME280;57225;61.460;24.060;2023-07-31T00:29:52;99182.94;;;16.90;100.00
61757;BME280;57225;61.460;24.060;2023-07-31T00:32:37;99191.84;;;16.88;100.00
61757;BME280;57225;61.460;24.060;2023-07-31T00:35:22;99196.09;;;16.84;100.00
61757;BME280;57225;61.460;24.060;2023-07-31T00:38:06;99190.13;;;16.82;100.00
61757;BME280;57225;61.460;24.060;2023-07-31T00:40:51;99192.00;;;16.76;100.00
61757;BME280;57225;61.460;24.060;2023-07-31T00:43:35;99183.41;;;16.70;100.00
61757;BME280;57225;61.460;24.060;2023-07-31T00:46:20;99187.34;;;16.73;100.00
61757;BME280;57225;61.460;24.060;2023-07-31T00:49:05;99190.16;;;16.73;100.00
61757;BME280;57225;61.460;24.060;2023-07-31T00:51:50;99156.00;;;16.53;100.00
61757;BME280;57225;61.460;24.060;2023-07-31T00:54:34;99183.91;;;16.69;100.00
61757;BME280;57225;61.460;24.060;2023-07-31T00:57:19;99195.59;;;16.67;100.00
61757;BME280;57225;61.460;24.060;2023-07-31T01:00:04;99193.25;;;16.66;100.00
61757;BME280;57225;61.460;24.060;2023-07-31T01:02:50;99190.28;;;16.60;100.00
61757;BME280;57225;61.460;24.060;2023-07-31T01:11:27;99194.47;;;16.56;100.00
61757;BME280;57225;61.460;24.060;2023-07-31T01:14:12;99185.69;;;16.44;100.00
61757;BME280;57225;61.460;24.060;2023-07-31T01:16:56;99175.09;;;16.48;100.00
61757;BME280;57225;61.460;24.060;2023-07-31T01:19:41;99173.19;;;16.45;100.00
61757;BME280;57225;61.460;24.060;2023-07-31T01:26:10;99180.25;;;16.50;100.00
61757;BME280;57225;61.460;24.060;2023-07-31T01:29:17;99174.88;;;16.25;100.00
61757;BME280;57225;61.460;24.060;2023-07-31T01:32:06;99165.91;;;16.08;100.00
61757;BME280;57225;61.460;24.060;2023-07-31T01:34:52;99162.81;;;16.15;100.00
61757;BME280;57225;61.460;24.060;2023-07-31T01:37:37;99159.38;;;16.11;100.00
61757;BME280;57225;61.460;24.060;2023-07-31T01:40:22;99165.34;;;16.22;100.00
61757;BME280;57225;61.460;24.060;2023-07-31T01:43:07;99177.38;;;16.23;100.00
61757;BME280;57225;61.460;24.060;2023-07-31T01:45:51;99178.44;;;16.25;100.00
61757;BME280;57225;61.460;24.060;2023-07-31T01:48:36;99180.97;;;16.32;100.00
61757;BME280;57225;61.460;24.060;2023-07-31T01:51:20;99184.41;;;16.27;100.00
61757;BME280;57225;61.460;24.060;2023-07-31T01:54:05;99189.69;;;16.25;100.00
61757;BME280;57225;61.460;24.060;2023-07-31T01:56:49;99198.00;;;16.29;100.00
61757;BME280;57225;61.460;24.060;2023-07-31T01:59:33;99195.47;;;16.22;100.00
61757;BME280;57225;61.460;24.060;2023-07-31T02:02:18;99201.44;;;16.24;100.00
61757;BME280;57225;61.460;24.060;2023-07-31T02:05:02;99197.84;;;16.23;100.00
61757;BME280;57225;61.460;24.060;2023-07-31T02:07:47;99205.44;;;16.14;100.00
61757;BME280;57225;61.460;24.060;2023-07-31T02:10:31;99199.34;;;16.15;100.00
61757;BME280;57225;61.460;24.060;2023-07-31T02:13:16;99199.03;;;16.13;100.00
61757;BME280;57225;61.460;24.060;2023-07-31T02:16:00;99201.56;;;16.20;100.00
61757;BME280;57225;61.460;24.060;2023-07-31T02:18:45;99175.59;;;16.07;100.00
61757;BME280;57225;61.460;24.060;2023-07-31T02:21:29;99198.75;;;16.20;100.00
61757;BME280;57225;61.460;24.060;2023-07-31T02:24:14;99210.59;;;16.15;100.00
61757;BME280;57225;61.460;24.060;2023-07-31T02:26:58;99203.13;;;16.12;100.00
61757;BME280;57225;61.460;24.060;2023-07-31T02:29:43;99196.38;;;16.09;100.00
61757;BME280;57225;61.460;24.060;2023-07-31T02:32:27;99201.66;;;16.07;100.00
61757;BME280;57225;61.460;24.060;2023-07-31T02:35:12;99203.06;;;16.03;100.00
61757;BME280;57225;61.460;24.060;2023-07-31T02:37:59;99184.78;;;15.98;100.00
61757;BME280;57225;61.460;24.060;2023-07-31T02:40:44;99211.06;;;16.14;100.00
61757;BME280;57225;61.460;24.060;2023-07-31T02:43:29;99207.47;;;16.13;100.00
61757;BME280;57225;61.460;24.060;2023-07-31T02:46:13;99207.78;;;16.15;100.00
61757;BME280;57225;61.460;24.060;2023-07-31T02:48:58;99208.09;;;16.08;100.00
61757;BME280;57225;61.460;24.060;2023-07-31T02:51:42;99211.38;;;16.16;100.00
61757;BME280;57225;61.460;24.060;2023-07-31T02:54:27;99216.56;;;16.17;100.00
61757;BME280;57225;61.460;24.060;2023-07-31T02:57:11;99194.91;;;15.96;100.00
61757;BME280;57225;61.460;24.060;2023-07-31T02:59:55;99219.81;;;16.16;100.00
61757;BME280;57225;61.460;24.060;2023-07-31T03:02:40;99213.75;;;16.17;100.00
61757;BME280;57225;61.460;24.060;2023-07-31T03:05:24;99219.09;;;16.24;100.00
61757;BME280;57225;61.460;24.060;2023-07-31T03:08:09;99208.47;;;16.28;100.00
61757;BME280;57225;61.460;24.060;2023-07-31T03:10:53;99219.75;;;16.37;100.00
61757;BME280;57225;61.460;24.060;2023-07-31T03:13:38;99221.47;;;16.44;100.00
61757;BME280;57225;61.460;24.060;2023-07-31T03:16:22;99212.56;;;16.45;100.00
61757;BME280;57225;61.460;24.060;2023-07-31T03:19:07;99215.69;;;16.47;100.00
61757;BME280;57225;61.460;24.060;2023-07-31T03:21:51;99207.72;;;16.46;100.00
61757;BME280;57225;61.460;24.060;2023-07-31T03:24:36;99215.16;;;16.62;100.00
61757;BME280;57225;61.460;24.060;2023-07-31T03:27:20;99216.56;;;16.66;100.00
61757;BME280;57225;61.460;24.060;2023-07-31T03:30:05;99221.22;;;16.69;100.00
61757;BME280;57225;61.460;24.060;2023-07-31T03:32:50;99212.66;;;16.73;100.00
61757;BME280;57225;61.460;24.060;2023-07-31T03:35:34;99214.69;;;16.72;100.00
61757;BME280;57225;61.460;24.060;2023-07-31T03:38:19;99207.94;;;16.70;100.00
61757;BME280;57225;61.460;24.060;2023-07-31T03:41:04;99216.38;;;16.70;100.00
61757;BME280;57225;61.460;24.060;2023-07-31T03:43:51;99209.97;;;16.69;100.00
61757;BME280;57225;61.460;24.060;2023-07-31T03:46:35;99210.75;;;16.70;100.00
61757;BME280;57225;61.460;24.060;2023-07-31T03:49:20;99179.31;;;16.53;100.00
61757;BME280;57225;61.460;24.060;2023-07-31T03:52:04;99205.13;;;16.70;100.00
61757;BME280;57225;61.460;24.060;2023-07-31T03:54:49;99204.34;;;16.69;100.00
61757;BME280;57225;61.460;24.060;2023-07-31T03:57:33;99206.41;;;16.69;100.00
61757;BME280;57225;61.460;24.060;2023-07-31T04:00:18;99207.78;;;16.64;100.00
61757;BME280;57225;61.460;24.060;2023-07-31T04:03:20;99213.28;;;16.68;100.00
61757;BME280;57225;61.460;24.060;2023-07-31T04:06:05;99210.94;;;16.66;100.00
61757;BME280;57225;61.460;24.060;2023-07-31T04:08:51;99216.56;;;16.66;100.00
61757;BME280;57225;61.460;24.060;2023-07-31T04:11:35;99217.66;;;16.69;100.00
61757;BME280;57225;61.460;24.060;2023-07-31T04:14:20;99225.78;;;16.76;100.00
61757;BME280;57225;61.460;24.060;2023-07-31T04:17:04;99220.63;;;16.83;100.00
61757;BME280;57225;61.460;24.060;2023-07-31T04:19:48;99216.72;;;16.90;100.00
61757;BME280;57225;61.460;24.060;2023-07-31T04:22:33;99186.69;;;16.78;100.00
61757;BME280;57225;61.460;24.060;2023-07-31T04:25:17;99207.06;;;17.00;100.00
61757;BME280;57225;61.460;24.060;2023-07-31T04:28:02;99206.09;;;17.03;100.00
61757;BME280;57225;61.460;24.060;2023-07-31T04:30:47;99205.19;;;17.06;100.00
61757;BME280;57225;61.460;24.060;2023-07-31T04:33:31;99205.19;;;17.06;100.00
61757;BME280;57225;61.460;24.060;2023-07-31T04:36:16;99205.19;;;17.06;100.00
61757;BME280;57225;61.460;24.060;2023-07-31T04:39:01;99194.84;;;17.03;100.00
61757;BME280;57225;61.460;24.060;2023-07-31T04:41:45;99198.59;;;17.09;100.00
61757;BME280;57225;61.460;24.060;2023-07-31T04:44:30;99214.56;;;17.12;100.00
61757;BME280;57225;61.460;24.060;2023-07-31T04:47:14;99189.22;;;17.03;100.00
61757;BME280;57225;61.460;24.060;2023-07-31T04:49:59;99197.34;;;17.19;100.00
61757;BME280;57225;61.460;24.060;2023-07-31T04:52:43;99210.78;;;17.24;100.00
61757;BME280;57225;61.460;24.060;2023-07-31T04:55:28;99201.72;;;17.29;100.00
61757;BME280;57225;61.460;24.060;2023-07-31T04:58:12;99200.44;;;17.40;100.00
61757;BME280;57225;61.460;24.060;2023-07-31T05:00:57;99207.00;;;17.46;100.00
61757;BME280;57225;61.460;24.060;2023-07-31T05:03:41;99197.28;;;17.56;100.00
61757;BME280;57225;61.460;24.060;2023-07-31T05:06:25;99184.44;;;17.55;100.00
61757;BME280;57225;61.460;24.060;2023-07-31T05:09:10;99189.91;;;17.77;100.00
61757;BME280;57225;61.460;24.060;2023-07-31T05:11:55;99184.75;;;17.66;100.00
61757;BME280;57225;61.460;24.060;2023-07-31T05:14:39;99185.72;;;17.63;100.00
61757;BME280;57225;61.460;24.060;2023-07-31T05:17:23;99182.72;;;17.57;100.00
61757;BME280;57225;61.460;24.060;2023-07-31T05:20:08;99190.41;;;17.57;100.00
61757;BME280;57225;61.460;24.060;2023-07-31T05:22:53;99190.38;;;17.66;100.00
61757;BME280;57225;61.460;24.060;2023-07-31T05:25:38;99185.53;;;17.76;100.00
61757;BME280;57225;61.460;24.060;2023-07-31T05:28:22;99185.00;;;17.86;100.00
61757;BME280;57225;61.460;24.060;2023-07-31T05:31:06;99177.31;;;17.87;100.00
61757;BME280;57225;61.460;24.060;2023-07-31T05:33:51;99160.78;;;17.71;100.00
61757;BME280;57225;61.460;24.060;2023-07-31T05:36:35;99189.06;;;17.94;100.00
61757;BME280;57225;61.460;24.060;2023-07-31T05:39:20;99187.78;;;17.95;100.00
61757;BME280;57225;61.460;24.060;2023-07-31T05:42:05;99177.00;;;17.94;100.00
61757;BME280;57225;61.460;24.060;2023-07-31T05:44:49;99191.09;;;17.85;100.00
61757;BME280;57225;61.460;24.060;2023-07-31T05:47:34;99173.41;;;17.84;100.00
61757;BME280;57225;61.460;24.060;2023-07-31T05:50:18;99180.28;;;17.92;100.00
61757;BME280;57225;61.460;24.060;2023-07-31T05:53:30;99189.13;;;17.67;100.00
61757;BME280;57225;61.460;24.060;2023-07-31T05:56:15;99191.88;;;17.85;100.00
61757;BME280;57225;61.460;24.060;2023-07-31T05:59:00;99184.34;;;17.91;100.00
61757;BME280;57225;61.460;24.060;2023-07-31T06:01:44;99187.47;;;17.93;100.00
61757;BME280;57225;61.460;24.060;2023-07-31T06:04:29;99184.97;;;17.95;100.00
61757;BME280;57225;61.460;24.060;2023-07-31T06:07:13;99183.06;;;18.01;100.00
61757;BME280;57225;61.460;24.060;2023-07-31T06:09:58;99178.28;;;18.17;100.00
61757;BME280;57225;61.460;24.060;2023-07-31T06:12:47;99182.78;;;18.23;100.00
61757;BME280;57225;61.460;24.060;2023-07-31T06:25:49;99169.28;;;18.27;100.00
61757;BME280;57225;61.460;24.060;2023-07-31T06:28:34;99174.81;;;18.22;100.00
61757;BME280;57225;61.460;24.060;2023-07-31T06:31:18;99188.00;;;18.16;100.00
61757;BME280;57225;61.460;24.060;2023-07-31T06:34:06;99182.25;;;18.34;100.00
61757;BME280;57225;61.460;24.060;2023-07-31T06:36:51;99169.16;;;18.22;100.00
61757;BME280;57225;61.460;24.060;2023-07-31T06:39:35;99177.50;;;18.40;100.00
61757;BME280;57225;61.460;24.060;2023-07-31T06:42:21;99178.38;;;18.31;100.00
61757;BME280;57225;61.460;24.060;2023-07-31T06:45:06;99167.31;;;18.19;100.00
61757;BME280;57225;61.460;24.060;2023-07-31T06:47:51;99181.22;;;18.22;100.00
61757;BME280;57225;61.460;24.060;2023-07-31T06:50:35;99176.09;;;18.21;100.00
61757;BME280;57225;61.460;24.060;2023-07-31T06:53:33;99167.97;;;18.14;100.00
61757;BME280;57225;61.460;24.060;2023-07-31T06:56:17;99152.69;;;17.96;100.00
61757;BME280;57225;61.460;24.060;2023-07-31T06:59:02;99169.28;;;18.27;100.00
61757;BME280;57225;61.460;24.060;2023-07-31T07:01:46;99162.03;;;18.35;100.00
61757;BME280;57225;61.460;24.060;2023-07-31T07:04:31;99168.41;;;18.45;100.00
61757;BME280;57225;61.460;24.060;2023-07-31T07:07:15;99157.19;;;18.60;100.00
61757;BME280;57225;61.460;24.060;2023-07-31T07:10:00;99158.03;;;18.51;100.00
61757;BME280;57225;61.460;24.060;2023-07-31T07:12:45;99159.53;;;18.61;100.00
61757;BME280;57225;61.460;24.060;2023-07-31T07:15:30;99154.63;;;18.71;100.00
61757;BME280;57225;61.460;24.060;2023-07-31T07:18:14;99161.63;;;18.75;100.00
61757;BME280;57225;61.460;24.060;2023-07-31T07:20:59;99157.78;;;18.87;100.00
61757;BME280;57225;61.460;24.060;2023-07-31T07:23:45;99160.41;;;18.91;100.00
61757;BME280;57225;61.460;24.060;2023-07-31T07:26:30;99164.78;;;18.77;100.00
61757;BME280;57225;61.460;24.060;2023-07-31T07:29:14;99167.16;;;19.08;100.00
61757;BME280;57225;61.460;24.060;2023-07-31T07:31:59;99160.06;;;19.13;100.00
61757;BME280;57225;61.460;24.060;2023-07-31T07:34:43;99155.28;;;19.19;100.00
61757;BME280;57225;61.460;24.060;2023-07-31T07:37:28;99160.56;;;19.26;100.00
61757;BME280;57225;61.460;24.060;2023-07-31T07:40:12;99170.19;;;19.19;100.00
61757;BME280;57225;61.460;24.060;2023-07-31T07:42:57;99154.88;;;18.97;100.00
61757;BME280;57225;61.460;24.060;2023-07-31T07:45:41;99160.72;;;18.93;100.00
61757;BME280;57225;61.460;24.060;2023-07-31T07:48:26;99158.56;;;18.88;100.00
61757;BME280;57225;61.460;24.060;2023-07-31T07:51:10;99174.94;;;18.99;100.00
61757;BME280;57225;61.460;24.060;2023-07-31T07:53:55;99167.06;;;19.03;100.00
61757;BME280;57225;61.460;24.060;2023-07-31T07:56:40;99165.34;;;18.81;100.00
61757;BME280;57225;61.460;24.060;2023-07-31T07:59:24;99164.69;;;18.86;100.00
61757;BME280;57225;61.460;24.060;2023-07-31T08:02:09;99155.25;;;18.90;100.00
61757;BME280;57225;61.460;24.060;2023-07-31T08:04:53;99152.94;;;19.03;100.00
61757;BME280;57225;61.460;24.060;2023-07-31T08:07:38;99160.75;;;19.08;100.00
61757;BME280;57225;61.460;24.060;2023-07-31T08:10:22;99150.44;;;19.19;100.00
61757;BME280;57225;61.460;24.060;2023-07-31T08:13:07;99152.69;;;19.45;100.00
61757;BME280;57225;61.460;24.060;2023-07-31T08:15:51;99157.88;;;19.46;98.09
61757;BME280;57225;61.460;24.060;2023-07-31T08:18:36;99162.25;;;19.62;98.69
61757;BME280;57225;61.460;24.060;2023-07-31T08:21:21;99159.44;;;19.47;97.89
61757;BME280;57225;61.460;24.060;2023-07-31T08:24:06;99153.19;;;19.58;99.31
61757;BME280;57225;61.460;24.060;2023-07-31T08:26:52;99143.25;;;19.62;100.00
61757;BME280;57225;61.460;24.060;2023-07-31T08:29:36;99160.13;;;19.72;100.00
61757;BME280;57225;61.460;24.060;2023-07-31T08:32:21;99152.91;;;19.56;99.53
61757;BME280;57225;61.460;24.060;2023-07-31T08:35:05;99154.56;;;19.62;98.93
61757;BME280;57225;61.460;24.060;2023-07-31T08:37:50;99155.91;;;19.67;97.36
61757;BME280;57225;61.460;24.060;2023-07-31T08:40:37;99150.81;;;19.86;95.97
61757;BME280;57225;61.460;24.060;2023-07-31T08:43:27;99152.50;;;19.78;88.85
61757;BME280;57225;61.460;24.060;2023-07-31T08:46:13;99157.84;;;19.76;90.96
61757;BME280;57225;61.460;24.060;2023-07-31T08:49:05;99149.28;;;19.70;93.21
61757;BME280;57225;61.460;24.060;2023-07-31T08:51:52;99163.81;;;19.78;92.21
61757;BME280;57225;61.460;24.060;2023-07-31T08:54:37;99158.44;;;19.80;93.73
61757;BME280;57225;61.460;24.060;2023-07-31T08:57:21;99163.13;;;19.83;95.50
61757;BME280;57225;61.460;24.060;2023-07-31T09:00:09;99144.13;;;19.68;95.22
61757;BME280;57225;61.460;24.060;2023-07-31T09:03:20;99147.81;;;19.75;95.35
61757;BME280;57225;61.460;24.060;2023-07-31T09:06:06;99145.88;;;19.51;95.64
61757;BME280;57225;61.460;24.060;2023-07-31T09:08:51;99142.28;;;19.51;95.45
61757;BME280;57225;61.460;24.060;2023-07-31T09:11:35;99139.03;;;19.43;97.82
61757;BME280;57225;61.460;24.060;2023-07-31T09:14:20;99147.22;;;19.41;99.49
61757;BME280;57225;61.460;24.060;2023-07-31T09:17:05;99145.44;;;19.00;100.00
61757;BME280;57225;61.460;24.060;2023-07-31T09:19:50;99147.66;;;18.96;100.00
61757;BME280;57225;61.460;24.060;2023-07-31T09:22:35;99153.47;;;18.77;100.00
61757;BME280;57225;61.460;24.060;2023-07-31T09:25:21;99159.84;;;18.63;100.00
61757;BME280;57225;61.460;24.060;2023-07-31T09:28:07;99153.00;;;18.55;100.00
61757;BME280;57225;61.460;24.060;2023-07-31T09:30:52;99147.41;;;18.46;100.00
61757;BME280;57225;61.460;24.060;2023-07-31T09:33:54;99149.81;;;18.38;100.00
61757;BME280;57225;61.460;24.060;2023-07-31T09:36:47;99158.38;;;18.44;100.00
61757;BME280;57225;61.460;24.060;2023-07-31T09:39:32;99159.50;;;18.14;100.00
61757;BME280;57225;61.460;24.060;2023-07-31T09:42:25;99161.59;;;18.04;100.00
61757;BME280;57225;61.460;24.060;2023-07-31T09:45:10;99147.78;;;17.73;100.00
61757;BME280;57225;61.460;24.060;2023-07-31T09:47:56;99146.69;;;17.71;100.00
61757;BME280;57225;61.460;24.060;2023-07-31T09:50:42;99150.66;;;17.46;100.00
61757;BME280;57225;61.460;24.060;2023-07-31T09:53:29;99141.44;;;17.36;100.00
61757;BME280;57225;61.460;24.060;2023-07-31T09:56:20;99147.22;;;17.42;100.00
61757;BME280;57225;61.460;24.060;2023-07-31T09:59:05;99143.63;;;17.50;100.00
61757;BME280;57225;61.460;24.060;2023-07-31T10:01:52;99142.47;;;17.66;100.00
61757;BME280;57225;61.460;24.060;2023-07-31T10:04:39;99145.53;;;17.86;100.00
61757;BME280;57225;61.460;24.060;2023-07-31T10:07:25;99143.66;;;17.83;100.00
61757;BME280;57225;61.460;24.060;2023-07-31T10:10:10;99142.13;;;17.82;100.00
61757;BME280;57225;61.460;24.060;2023-07-31T10:12:56;99152.53;;;18.00;100.00
61757;BME280;57225;61.460;24.060;2023-07-31T10:15:41;99146.97;;;18.15;100.00
61757;BME280;57225;61.460;24.060;2023-07-31T10:18:28;99139.78;;;18.37;100.00
61757;BME280;57225;61.460;24.060;2023-07-31T10:21:13;99139.03;;;18.28;100.00
61757;BME280;57225;61.460;24.060;2023-07-31T10:23:58;99137.78;;;18.29;100.00
61757;BME280;57225;61.460;24.060;2023-07-31T10:26:45;99144.94;;;18.39;100.00
61757;BME280;57225;61.460;24.060;2023-07-31T10:29:30;99136.03;;;18.07;100.00
61757;BME280;57225;61.460;24.060;2023-07-31T10:32:15;99130.41;;;18.07;100.00
61757;BME280;57225;61.460;24.060;2023-07-31T10:35:05;99129.88;;;18.42;100.00
61757;BME280;57225;61.460;24.060;2023-07-31T10:37:51;99130.69;;;18.81;100.00
61757;BME280;57225;61.460;24.060;2023-07-31T10:40:36;99133.19;;;18.64;100.00
61757;BME280;57225;61.460;24.060;2023-07-31T10:43:24;99135.41;;;18.60;100.00
61757;BME280;57225;61.460;24.060;2023-07-31T10:46:14;99134.81;;;18.56;100.00
61757;BME280;57225;61.460;24.060;2023-07-31T10:49:00;99128.81;;;18.54;100.00
61757;BME280;57225;61.460;24.060;2023-07-31T10:51:47;99132.53;;;18.45;100.00
61757;BME280;57225;61.460;24.060;2023-07-31T10:54:33;99130.53;;;18.37;100.00
61757;BME280;57225;61.460;24.060;2023-07-31T10:57:21;99126.84;;;18.22;100.00
61757;BME280;57225;61.460;24.060;2023-07-31T11:00:29;99126.13;;;18.12;100.00
61757;BME280;57225;61.460;24.060;2023-07-31T11:03:42;99121.63;;;18.05;100.00
61757;BME280;57225;61.460;24.060;2023-07-31T11:06:29;99110.53;;;18.02;100.00
61757;BME280;57225;61.460;24.060;2023-07-31T11:09:14;99117.75;;;18.27;100.00
61757;BME280;57225;61.460;24.060;2023-07-31T11:11:59;99125.78;;;18.43;99.39
61757;BME280;57225;61.460;24.060;2023-07-31T11:14:44;99111.25;;;18.59;100.00
61757;BME280;57225;61.460;24.060;2023-07-31T11:17:28;99108.50;;;18.50;96.44
61757;BME280;57225;61.460;24.060;2023-07-31T11:20:13;99104.41;;;18.51;100.00
61757;BME280;57225;61.460;24.060;2023-07-31T11:23:02;99113.28;;;18.35;100.00
61757;BME280;57225;61.460;24.060;2023-07-31T11:25:47;99110.00;;;18.60;98.62
61757;BME280;57225;61.460;24.060;2023-07-31T11:28:35;99119.66;;;18.68;96.96
61757;BME280;57225;61.460;24.060;2023-07-31T11:31:19;99106.91;;;18.73;96.79
61757;BME280;57225;61.460;24.060;2023-07-31T11:34:07;99113.28;;;18.82;95.30
61757;BME280;57225;61.460;24.060;2023-07-31T11:36:55;99111.44;;;18.94;93.29
61757;BME280;57225;61.460;24.060;2023-07-31T11:39:40;99106.28;;;18.93;94.12
61757;BME280;57225;61.460;24.060;2023-07-31T11:42:25;99114.56;;;19.11;92.90
61757;BME280;57225;61.460;24.060;2023-07-31T11:45:10;99118.44;;;18.99;93.47
61757;BME280;57225;61.460;24.060;2023-07-31T11:47:55;99122.72;;;18.94;93.64
61757;BME280;57225;61.460;24.060;2023-07-31T11:50:39;99121.94;;;18.94;94.42
61757;BME280;57225;61.460;24.060;2023-07-31T11:53:43;99115.69;;;18.75;95.86
61757;BME280;57225;61.460;24.060;2023-07-31T11:56:28;99113.94;;;18.77;94.77
61757;BME280;57225;61.460;24.060;2023-07-31T11:59:13;99116.09;;;18.82;97.97
61757;BME280;57225;61.460;24.060;2023-07-31T12:01:58;99101.47;;;18.69;95.95
61757;BME280;57225;61.460;24.060;2023-07-31T12:04:42;99101.09;;;18.76;99.51
61757;BME280;57225;61.460;24.060;2023-07-31T12:07:27;99097.00;;;18.77;97.36
61757;BME280;57225;61.460;24.060;2023-07-31T12:10:21;99097.38;;;18.85;98.62
61757;BME280;57225;61.460;24.060;2023-07-31T12:13:09;99105.78;;;18.94;96.73
61757;BME280;57225;61.460;24.060;2023-07-31T12:16:01;99095.84;;;18.99;99.54
61757;BME280;57225;61.460;24.060;2023-07-31T12:18:49;99098.00;;;19.04;99.75
61757;BME280;57225;61.460;24.060;2023-07-31T12:21:34;99090.31;;;19.04;99.70
61757;BME280;57225;61.460;24.060;2023-07-31T12:24:19;99099.19;;;19.12;99.59
61757;BME280;57225;61.460;24.060;2023-07-31T12:27:14;99103.50;;;19.22;100.00
61757;BME280;57225;61.460;24.060;2023-07-31T12:29:58;99095.41;;;19.15;97.83
61757;BME280;57225;61.460;24.060;2023-07-31T12:32:43;99096.84;;;19.25;98.75
61757;BME280;57225;61.460;24.060;2023-07-31T12:35:35;99098.50;;;19.32;99.57
61757;BME280;57225;61.460;24.060;2023-07-31T12:38:20;99090.41;;;19.39;96.11
61757;BME280;57225;61.460;24.060;2023-07-31T12:41:05;99084.19;;;19.64;96.17
61757;BME280;57225;61.460;24.060;2023-07-31T12:43:50;99091.88;;;19.99;94.73
61757;BME280;57225;61.460;24.060;2023-07-31T12:46:35;99086.00;;;20.37;92.92
61757;BME280;57225;61.460;24.060;2023-07-31T12:49:19;99078.22;;;20.32;89.85
61757;BME280;57225;61.460;24.060;2023-07-31T12:52:04;99075.94;;;20.36;89.49
61757;BME280;57225;61.460;24.060;2023-07-31T12:54:49;99073.94;;;20.22;87.45
61757;BME280;57225;61.460;24.060;2023-07-31T12:57:34;99068.47;;;20.19;88.25
61757;BME280;57225;61.460;24.060;2023-07-31T13:00:18;99067.03;;;20.23;90.08
61757;BME280;57225;61.460;24.060;2023-07-31T13:03:12;99063.47;;;20.28;91.73
61757;BME280;57225;61.460;24.060;2023-07-31T13:05:56;99063.56;;;20.34;92.06
61757;BME280;57225;61.460;24.060;2023-07-31T13:08:40;99056.25;;;20.27;90.99
61757;BME280;57225;61.460;24.060;2023-07-31T13:11:25;99060.44;;;20.52;92.61
61757;BME280;57225;61.460;24.060;2023-07-31T13:14:09;99064.47;;;20.66;90.77
61757;BME280;57225;61.460;24.060;2023-07-31T13:16:55;99070.69;;;20.70;92.52
61757;BME280;57225;61.460;24.060;2023-07-31T13:19:39;99065.69;;;20.39;90.42
61757;BME280;57225;61.460;24.060;2023-07-31T13:22:24;99069.19;;;20.14;91.93
61757;BME280;57225;61.460;24.060;2023-07-31T13:25:08;99079.59;;;20.02;93.32
61757;BME280;57225;61.460;24.060;2023-07-31T13:27:53;99078.19;;;19.77;96.32
61757;BME280;57225;61.460;24.060;2023-07-31T13:30:37;99062.16;;;19.54;98.63
61757;BME280;57225;61.460;24.060;2023-07-31T13:33:21;99064.88;;;19.48;100.00
61757;BME280;57225;61.460;24.060;2023-07-31T13:36:06;99070.53;;;19.48;100.00
61757;BME280;57225;61.460;24.060;2023-07-31T13:38:50;99057.06;;;19.43;100.00
61757;BME280;57225;61.460;24.060;2023-07-31T13:41:35;99055.56;;;19.77;100.00
61757;BME280;57225;61.460;24.060;2023-07-31T13:44:19;99055.88;;;20.34;100.00
61757;BME280;57225;61.460;24.060;2023-07-31T13:47:04;99040.13;;;20.54;98.12
61757;BME280;57225;61.460;24.060;2023-07-31T13:49:48;99047.00;;;20.47;95.67
61757;BME280;57225;61.460;24.060;2023-07-31T13:52:33;99052.28;;;20.80;97.71
61757;BME280;57225;61.460;24.060;2023-07-31T13:55:17;99055.09;;;20.34;95.65
61757;BME280;57225;61.460;24.060;2023-07-31T13:58:02;99057.69;;;20.58;96.72
61757;BME280;57225;61.460;24.060;2023-07-31T14:00:46;99056.13;;;20.57;95.59
61757;BME280;57225;61.460;24.060;2023-07-31T14:03:31;99057.25;;;20.44;95.06
61757;BME280;57225;61.460;24.060;2023-07-31T14:06:15;99053.09;;;20.40;97.88
61757;BME280;57225;61.460;24.060;2023-07-31T14:09:00;99056.81;;;20.11;97.17
61757;BME280;57225;61.460;24.060;2023-07-31T14:11:44;99059.22;;;19.98;99.90
61757;BME280;57225;61.460;24.060;2023-07-31T14:14:28;99053.97;;;20.11;99.27
61757;BME280;57225;61.460;24.060;2023-07-31T14:17:13;99057.44;;;20.00;100.00
61757;BME280;57225;61.460;24.060;2023-07-31T14:19:58;99052.00;;;20.17;99.36
61757;BME280;57225;61.460;24.060;2023-07-31T14:22:43;99062.38;;;20.40;99.37
61757;BME280;57225;61.460;24.060;2023-07-31T14:25:27;99060.53;;;20.37;96.30
61757;BME280;57225;61.460;24.060;2023-07-31T14:28:12;99057.13;;;20.54;96.71
61757;BME280;57225;61.460;24.060;2023-07-31T14:30:56;99057.13;;;20.33;97.42
61757;BME280;57225;61.460;24.060;2023-07-31T14:33:41;99059.81;;;20.22;96.61
61757;BME280;57225;61.460;24.060;2023-07-31T14:36:25;99051.44;;;20.13;99.42
61757;BME280;57225;61.460;24.060;2023-07-31T14:39:10;99052.97;;;19.94;100.00